createdAt,value
2022-09-13T00:03:06.240Z,2.90
2022-09-13T00:08:06.643Z,2.33
2022-09-13T00:13:12.597Z,2.28
2022-09-13T00:18:10.620Z,2.58
2022-09-13T00:23:10.988Z,2.85
2022-09-13T00:28:10.158Z,2.80
2022-09-13T00:33:07.660Z,2.00
2022-09-13T00:38:06.767Z,2.33
2022-09-13T00:43:06.664Z,2.05
2022-09-13T00:48:08.566Z,2.50
2022-09-13T00:53:13.314Z,2.30
2022-09-13T00:58:22.639Z,2.30
2022-09-13T01:03:22.561Z,2.30
2022-09-13T01:08:23.160Z,2.30
2022-09-13T01:13:32.580Z,2.38
2022-09-13T01:18:30.796Z,2.80
2022-09-13T01:24:08.166Z,2.45
2022-09-13T01:29:34.389Z,2.33
2022-09-13T01:35:25.219Z,2.40
2022-09-13T01:40:52.179Z,2.60
2022-09-13T01:46:09.669Z,2.25
2022-09-13T01:51:22.402Z,2.40
2022-09-13T01:56:27.250Z,2.55
2022-09-13T02:01:36.281Z,2.60
2022-09-13T02:06:55.901Z,2.50
2022-09-13T02:12:00.224Z,2.50
2022-09-13T02:17:07.449Z,2.28
2022-09-13T02:22:12.112Z,2.60
2022-09-13T02:27:13.200Z,3.15
2022-09-13T02:32:15.030Z,2.45
2022-09-13T02:37:13.365Z,3.50
2022-09-13T02:42:27.660Z,3.08
2022-09-13T02:47:31.498Z,3.00
2022-09-13T02:52:54.973Z,2.92
2022-09-13T02:58:02.714Z,3.53
2022-09-13T03:03:04.126Z,3.85
2022-09-13T03:08:02.461Z,3.80
2022-09-13T03:13:19.198Z,4.50
2022-09-13T03:18:27.507Z,4.03
2022-09-13T03:23:45.235Z,4.50
2022-09-13T03:28:52.484Z,4.97
2022-09-13T03:34:01.946Z,5.13
2022-09-13T03:39:15.424Z,4.30
2022-09-13T03:44:14.773Z,3.88
2022-09-13T03:49:17.402Z,4.03
2022-09-13T03:54:32.631Z,4.50
2022-09-13T03:59:31.118Z,3.97
2022-09-13T04:04:41.526Z,3.83
2022-09-13T04:09:40.026Z,3.50
2022-09-13T04:14:38.959Z,4.18
2022-09-13T04:19:37.438Z,5.88
2022-09-13T04:24:36.566Z,6.43
2022-09-13T04:29:35.215Z,5.13
2022-09-13T04:34:34.509Z,4.13
2022-09-13T04:39:33.674Z,2.95
2022-09-13T04:44:32.943Z,2.90
2022-09-13T04:49:30.672Z,2.72
2022-09-13T04:54:28.913Z,2.75
2022-09-13T04:59:28.050Z,3.00
2022-09-13T05:04:28.677Z,3.13
2022-09-13T05:09:27.653Z,2.78
2022-09-13T05:14:26.519Z,3.33
2022-09-13T05:19:26.387Z,2.97
2022-09-13T05:24:24.544Z,3.72
2022-09-13T05:29:22.321Z,4.00
2022-09-13T05:34:20.143Z,3.28
2022-09-13T05:39:29.648Z,3.25
2022-09-13T05:44:32.455Z,3.30
2022-09-13T05:49:31.686Z,4.82
2022-09-13T05:54:30.378Z,4.22
2022-09-13T05:59:28.584Z,4.78
2022-09-13T06:04:26.395Z,4.68
2022-09-13T06:09:24.702Z,3.97
2022-09-13T06:14:22.445Z,4.43
2022-09-13T06:19:20.235Z,4.22
2022-09-13T06:24:18.031Z,4.55
2022-09-13T06:29:15.927Z,4.28
2022-09-13T06:34:16.442Z,5.15
2022-09-13T06:39:14.233Z,4.72
2022-09-13T06:44:13.348Z,4.95
2022-09-13T06:49:11.505Z,4.97
2022-09-13T06:54:09.588Z,6.03
2022-09-13T06:59:10.622Z,5.40
2022-09-13T07:04:13.973Z,5.60
2022-09-13T07:09:14.762Z,5.03
2022-09-13T07:14:14.868Z,4.95
2022-09-13T07:19:18.794Z,5.15
2022-09-13T07:24:20.536Z,5.20
2022-09-13T07:29:22.868Z,4.80
2022-09-13T07:34:26.494Z,4.93
2022-09-13T07:39:24.415Z,5.35
2022-09-13T07:44:23.078Z,4.70
2022-09-13T07:49:21.117Z,4.63
2022-09-13T07:54:19.519Z,4.43
2022-09-13T07:59:19.701Z,4.35
2022-09-13T08:04:19.289Z,13.18
2022-09-13T08:09:17.211Z,5.75
2022-09-13T08:14:19.469Z,4.43
2022-09-13T08:19:19.472Z,4.80
2022-09-13T08:24:20.082Z,5.13
2022-09-13T08:29:17.645Z,3.72
2022-09-13T08:34:16.199Z,3.10
2022-09-13T08:39:14.362Z,3.40
2022-09-13T08:44:26.821Z,3.17
2022-09-13T08:49:29.951Z,1.90
2022-09-13T08:54:28.691Z,1.95
2022-09-13T08:59:52.626Z,1.88
2022-09-13T09:10:16.694Z,2.20
2022-09-13T09:15:15.107Z,2.05
2022-09-13T09:20:27.304Z,2.05
2022-09-13T09:25:26.859Z,2.10
2022-09-13T09:30:28.133Z,1.92
2022-09-13T09:35:58.719Z,1.73
2022-09-13T09:40:56.941Z,1.90
2022-09-13T09:45:56.337Z,1.40
2022-09-13T09:50:58.661Z,1.13
2022-09-13T09:56:06.936Z,1.20
2022-09-13T10:01:10.816Z,1.05
2022-09-13T10:06:15.438Z,1.17
2022-09-13T10:11:16.685Z,1.20
2022-09-13T10:16:37.229Z,0.80
2022-09-13T10:21:36.360Z,0.93
2022-09-13T10:26:34.708Z,0.90
2022-09-13T10:31:39.814Z,1.00
2022-09-13T10:36:53.814Z,0.82
2022-09-13T10:42:00.696Z,1.20
2022-09-13T10:47:04.677Z,0.88
2022-09-13T10:52:25.490Z,1.13
2022-09-13T10:57:36.137Z,0.70
2022-09-13T11:03:07.852Z,0.68
2022-09-13T11:08:16.842Z,1.00
2022-09-13T11:13:36.299Z,0.80
2022-09-13T11:18:51.856Z,0.75
2022-09-13T11:24:11.095Z,0.70
2022-09-13T11:29:15.619Z,0.75
2022-09-13T11:34:41.432Z,0.80
2022-09-13T11:40:04.817Z,0.80
2022-09-13T11:45:22.672Z,0.63
2022-09-13T11:50:44.263Z,1.20
2022-09-13T11:55:54.752Z,0.68
2022-09-13T12:01:02.962Z,0.80
2022-09-13T12:06:16.414Z,1.10
2022-09-13T12:11:32.837Z,0.73
2022-09-13T12:16:36.494Z,0.80
2022-09-13T12:21:38.481Z,0.90
2022-09-13T12:26:40.354Z,1.02
2022-09-13T12:31:38.493Z,0.80
2022-09-13T12:36:48.043Z,1.17
2022-09-13T12:41:54.276Z,0.80
2022-09-13T12:47:24.240Z,0.65
2022-09-13T12:52:29.721Z,0.98
2022-09-13T12:57:36.543Z,0.85
2022-09-13T13:02:38.469Z,0.85
2022-09-13T13:07:38.324Z,0.90
2022-09-13T13:12:38.576Z,0.90
2022-09-13T13:17:48.374Z,0.70
2022-09-13T13:22:46.649Z,1.00
2022-09-13T13:27:48.719Z,0.82
2022-09-13T13:33:12.857Z,0.70
2022-09-13T13:38:32.469Z,0.60
2022-09-13T13:43:32.774Z,0.80
2022-09-13T13:48:41.906Z,0.82
2022-09-13T13:53:44.552Z,0.80
2022-09-13T13:58:47.345Z,0.82
2022-09-13T14:03:58.462Z,0.97
2022-09-13T14:09:03.778Z,0.80
2022-09-13T14:14:15.678Z,0.85
2022-09-13T14:19:21.441Z,1.17
2022-09-13T14:24:25.323Z,0.70
2022-09-13T14:29:38.089Z,0.98
2022-09-13T14:34:38.782Z,1.58
2022-09-13T14:39:37.810Z,1.00
2022-09-13T14:44:36.145Z,0.77
2022-09-13T14:49:37.126Z,0.90
2022-09-13T14:54:41.209Z,0.90
2022-09-13T14:59:43.221Z,0.90
2022-09-13T15:04:43.242Z,2.60
2022-09-13T15:09:40.985Z,0.65
2022-09-13T15:14:39.244Z,0.68
2022-09-13T15:19:51.218Z,1.10
2022-09-13T15:24:53.106Z,0.82
2022-09-13T15:30:03.138Z,0.68
2022-09-13T15:35:02.372Z,0.70
2022-09-13T15:40:19.390Z,0.90
2022-09-13T15:45:20.198Z,1.08
2022-09-13T15:50:27.636Z,1.50
2022-09-13T15:55:26.753Z,1.30
2022-09-13T16:00:30.054Z,1.17
2022-09-13T16:05:32.286Z,1.40
2022-09-13T16:10:33.251Z,1.35
2022-09-13T16:15:32.395Z,1.30
2022-09-13T16:20:33.188Z,1.42
2022-09-13T16:25:32.097Z,1.10
2022-09-13T16:30:31.418Z,1.35
2022-09-13T16:35:31.055Z,1.80
2022-09-13T16:40:29.707Z,1.20
2022-09-13T16:45:28.439Z,1.30
2022-09-13T16:50:26.352Z,1.42
2022-09-13T16:55:28.175Z,1.10
2022-09-13T17:00:30.314Z,1.23
2022-09-13T17:05:30.791Z,1.90
2022-09-13T17:10:28.818Z,1.50
2022-09-13T17:15:26.515Z,2.00
2022-09-13T17:20:24.410Z,2.20
2022-09-13T17:25:27.043Z,3.33
2022-09-13T17:30:25.984Z,3.03
2022-09-13T17:35:24.332Z,3.47
2022-09-13T17:40:22.492Z,2.25
2022-09-13T17:45:21.096Z,2.85
2022-09-13T17:50:19.481Z,2.10
2022-09-13T17:55:17.834Z,2.38
2022-09-13T18:00:16.890Z,2.53
2022-09-13T18:05:15.199Z,2.75
2022-09-13T18:10:40.316Z,1.65
2022-09-13T18:15:36.774Z,2.00
2022-09-13T18:20:40.400Z,2.10
2022-09-13T18:25:42.095Z,2.22
2022-09-13T18:30:40.307Z,2.17
2022-09-13T18:35:42.022Z,2.65
2022-09-13T18:40:42.950Z,1.83
2022-09-13T18:45:42.380Z,1.88
2022-09-13T18:50:42.589Z,2.45
2022-09-13T18:55:41.030Z,2.25
2022-09-13T19:00:39.118Z,2.08
2022-09-13T19:05:39.678Z,2.63
2022-09-13T19:10:39.746Z,2.35
2022-09-13T19:15:41.286Z,2.08
2022-09-13T19:20:40.160Z,1.65
2022-09-13T19:25:39.886Z,2.05
2022-09-13T19:30:39.555Z,1.45
2022-09-13T19:35:40.883Z,1.65
2022-09-13T19:40:57.186Z,2.10
2022-09-13T19:46:00.043Z,2.03
2022-09-13T19:51:09.491Z,1.67
2022-09-13T19:56:11.125Z,1.70
2022-09-13T20:01:18.945Z,1.27
2022-09-13T20:06:18.578Z,1.63
2022-09-13T20:11:17.706Z,1.13
2022-09-13T20:16:24.289Z,1.45
2022-09-13T20:21:27.331Z,1.40
2022-09-13T20:26:27.822Z,0.83
2022-09-13T20:31:30.075Z,1.20
2022-09-13T20:36:32.240Z,1.25
2022-09-13T20:41:34.708Z,1.10
2022-09-13T20:46:37.606Z,1.42
2022-09-13T20:51:37.540Z,1.03
2022-09-13T20:56:39.224Z,0.98
2022-09-13T21:01:38.672Z,1.27
2022-09-13T21:09:10.304Z,1.30
2022-09-13T21:13:39.423Z,0.98
2022-09-13T21:18:38.937Z,1.35
2022-09-13T21:23:40.172Z,1.17
2022-09-13T21:28:40.711Z,0.90
2022-09-13T21:33:42.951Z,1.60
2022-09-13T21:38:43.949Z,1.20
2022-09-13T21:43:49.035Z,1.35
2022-09-13T21:53:58.282Z,1.02
2022-09-13T21:59:05.892Z,1.25
2022-09-13T22:04:03.997Z,1.10
2022-09-13T22:09:07.655Z,1.27
2022-09-13T22:14:07.757Z,1.42
2022-09-13T22:19:16.034Z,1.38
2022-09-13T22:24:17.482Z,2.28
2022-09-13T22:29:19.477Z,1.10
2022-09-13T22:34:22.579Z,1.55
2022-09-13T22:39:24.154Z,1.80
2022-09-13T22:44:23.663Z,1.25
2022-09-13T22:49:26.911Z,1.63
2022-09-13T22:54:25.892Z,1.60
2022-09-13T22:59:25.022Z,1.27
2022-09-13T23:04:23.713Z,1.65
2022-09-13T23:09:22.716Z,1.42
2022-09-13T23:14:20.480Z,1.52
2022-09-13T23:19:20.139Z,1.85
2022-09-13T23:24:18.456Z,1.38
2022-09-13T23:29:22.865Z,1.65
2022-09-13T23:34:23.636Z,1.38
2022-09-13T23:39:23.099Z,1.50
2022-09-13T23:44:32.861Z,1.20
2022-09-13T23:49:34.802Z,1.30
2022-09-13T23:54:37.660Z,1.40
2022-09-13T23:59:36.189Z,1.20
